sensor_id;sensor_type;location;lat;lon;timestamp;P1;durP1;ratioP1;P2;durP2;ratioP2
28180;SDS011;15464;50.988;10.318;2023-12-22T00:01:24;27.85;;;5.22;;
28180;SDS011;15464;50.988;10.318;2023-12-22T00:03:50;28.88;;;5.50;;
28180;SDS011;15464;50.988;10.318;2023-12-22T00:06:17;16.92;;;4.68;;
28180;SDS011;15464;50.988;10.318;2023-12-22T00:08:44;17.60;;;3.67;;
28180;SDS011;15464;50.988;10.318;2023-12-22T00:11:10;20.77;;;4.82;;
28180;SDS011;15464;50.988;10.318;2023-12-22T00:13:37;19.83;;;4.43;;
28180;SDS011;15464;50.988;10.318;2023-12-22T00:16:04;20.50;;;4.38;;
28180;SDS011;15464;50.988;10.318;2023-12-22T00:18:31;18.38;;;4.15;;
28180;SDS011;15464;50.988;10.318;2023-12-22T00:20:58;20.98;;;4.13;;
28180;SDS011;15464;50.988;10.318;2023-12-22T00:23:25;19.27;;;3.45;;
28180;SDS011;15464;50.988;10.318;2023-12-22T00:25:51;18.92;;;4.65;;
28180;SDS011;15464;50.988;10.318;2023-12-22T00:28:18;19.05;;;4.95;;
28180;SDS011;15464;50.988;10.318;2023-12-22T00:30:45;17.50;;;3.78;;
28180;SDS011;15464;50.988;10.318;2023-12-22T00:33:12;19.77;;;3.95;;
28180;SDS011;15464;50.988;10.318;2023-12-22T00:35:38;26.05;;;4.45;;
28180;SDS011;15464;50.988;10.318;2023-12-22T00:38:05;16.70;;;3.63;;
28180;SDS011;15464;50.988;10.318;2023-12-22T00:40:32;16.90;;;3.58;;
28180;SDS011;15464;50.988;10.318;2023-12-22T00:42:59;20.10;;;4.50;;
28180;SDS011;15464;50.988;10.318;2023-12-22T00:45:25;16.95;;;3.85;;
28180;SDS011;15464;50.988;10.318;2023-12-22T00:47:52;14.63;;;3.83;;
28180;SDS011;15464;50.988;10.318;2023-12-22T00:50:39;18.67;;;4.35;;
28180;SDS011;15464;50.988;10.318;2023-12-22T00:53:06;17.52;;;4.45;;
28180;SDS011;15464;50.988;10.318;2023-12-22T00:55:32;14.73;;;3.10;;
28180;SDS011;15464;50.988;10.318;2023-12-22T00:57:59;16.00;;;4.57;;
28180;SDS011;15464;50.988;10.318;2023-12-22T01:00:26;18.88;;;3.42;;
28180;SDS011;15464;50.988;10.318;2023-12-22T01:02:53;16.38;;;3.63;;
28180;SDS011;15464;50.988;10.318;2023-12-22T01:05:19;16.35;;;3.67;;
28180;SDS011;15464;50.988;10.318;2023-12-22T01:07:46;18.20;;;4.32;;
28180;SDS011;15464;50.988;10.318;2023-12-22T01:10:13;14.23;;;3.33;;
28180;SDS011;15464;50.988;10.318;2023-12-22T01:12:40;17.83;;;3.70;;
28180;SDS011;15464;50.988;10.318;2023-12-22T01:15:07;12.98;;;4.10;;
28180;SDS011;15464;50.988;10.318;2023-12-22T01:17:34;11.85;;;3.80;;
28180;SDS011;15464;50.988;10.318;2023-12-22T01:20:01;15.52;;;3.30;;
28180;SDS011;15464;50.988;10.318;2023-12-22T01:22:28;14.77;;;3.72;;
28180;SDS011;15464;50.988;10.318;2023-12-22T01:24:57;19.05;;;4.18;;
28180;SDS011;15464;50.988;10.318;2023-12-22T01:27:24;14.65;;;3.53;;
28180;SDS011;15464;50.988;10.318;2023-12-22T01:29:50;11.98;;;2.65;;
28180;SDS011;15464;50.988;10.318;2023-12-22T01:32:17;15.48;;;4.05;;
28180;SDS011;15464;50.988;10.318;2023-12-22T01:34:44;15.05;;;3.00;;
28180;SDS011;15464;50.988;10.318;2023-12-22T01:37:11;17.15;;;2.95;;
28180;SDS011;15464;50.988;10.318;2023-12-22T01:39:37;14.75;;;3.22;;
28180;SDS011;15464;50.988;10.318;2023-12-22T01:42:04;13.65;;;3.97;;
28180;SDS011;15464;50.988;10.318;2023-12-22T01:44:31;20.55;;;3.78;;
28180;SDS011;15464;50.988;10.318;2023-12-22T01:46:57;11.27;;;2.92;;
28180;SDS011;15464;50.988;10.318;2023-12-22T01:49:25;14.63;;;3.25;;
28180;SDS011;15464;50.988;10.318;2023-12-22T01:51:52;17.00;;;3.83;;
28180;SDS011;15464;50.988;10.318;2023-12-22T01:54:19;15.65;;;3.92;;
28180;SDS011;15464;50.988;10.318;2023-12-22T01:56:46;16.17;;;3.22;;
28180;SDS011;15464;50.988;10.318;2023-12-22T01:59:13;14.43;;;3.92;;
28180;SDS011;15464;50.988;10.318;2023-12-22T02:01:40;13.05;;;2.95;;
28180;SDS011;15464;50.988;10.318;2023-12-22T02:04:07;17.77;;;3.42;;
28180;SDS011;15464;50.988;10.318;2023-12-22T02:06:34;16.80;;;3.15;;
28180;SDS011;15464;50.988;10.318;2023-12-22T02:09:02;13.77;;;2.70;;
28180;SDS011;15464;50.988;10.318;2023-12-22T02:11:30;15.00;;;3.28;;
28180;SDS011;15464;50.988;10.318;2023-12-22T02:13:57;17.35;;;4.05;;
28180;SDS011;15464;50.988;10.318;2023-12-22T02:16:45;13.50;;;3.15;;
28180;SDS011;15464;50.988;10.318;2023-12-22T02:22:05;15.37;;;3.40;;
28180;SDS011;15464;50.988;10.318;2023-12-22T02:24:35;11.90;;;2.42;;
28180;SDS011;15464;50.988;10.318;2023-12-22T02:27:06;14.40;;;3.10;;
28180;SDS011;15464;50.988;10.318;2023-12-22T02:32:16;17.67;;;3.72;;
28180;SDS011;15464;50.988;10.318;2023-12-22T02:34:51;16.98;;;3.25;;
28180;SDS011;15464;50.988;10.318;2023-12-22T02:37:20;15.82;;;2.67;;
28180;SDS011;15464;50.988;10.318;2023-12-22T02:39:50;11.68;;;2.97;;
28180;SDS011;15464;50.988;10.318;2023-12-22T02:44:46;15.60;;;3.38;;
28180;SDS011;15464;50.988;10.318;2023-12-22T02:47:13;14.23;;;2.95;;
28180;SDS011;15464;50.988;10.318;2023-12-22T02:49:39;16.40;;;2.70;;
28180;SDS011;15464;50.988;10.318;2023-12-22T02:52:06;9.15;;;2.83;;
28180;SDS011;15464;50.988;10.318;2023-12-22T02:54:33;10.85;;;3.13;;
28180;SDS011;15464;50.988;10.318;2023-12-22T02:57:00;13.02;;;3.40;;
28180;SDS011;15464;50.988;10.318;2023-12-22T02:59:27;11.45;;;2.70;;
28180;SDS011;15464;50.988;10.318;2023-12-22T03:01:55;11.60;;;2.70;;
28180;SDS011;15464;50.988;10.318;2023-12-22T03:04:22;11.32;;;3.03;;
28180;SDS011;15464;50.988;10.318;2023-12-22T03:06:48;11.48;;;2.65;;
28180;SDS011;15464;50.988;10.318;2023-12-22T03:09:15;12.13;;;2.67;;
28180;SDS011;15464;50.988;10.318;2023-12-22T03:11:42;12.40;;;2.88;;
28180;SDS011;15464;50.988;10.318;2023-12-22T03:14:09;17.20;;;3.30;;
28180;SDS011;15464;50.988;10.318;2023-12-22T03:16:36;17.98;;;3.38;;
28180;SDS011;15464;50.988;10.318;2023-12-22T03:21:35;10.90;;;2.65;;
28180;SDS011;15464;50.988;10.318;2023-12-22T03:24:02;16.08;;;4.00;;
28180;SDS011;15464;50.988;10.318;2023-12-22T03:26:29;14.52;;;3.00;;
28180;SDS011;15464;50.988;10.318;2023-12-22T03:28:56;13.38;;;3.25;;
28180;SDS011;15464;50.988;10.318;2023-12-22T03:31:22;9.35;;;2.75;;
28180;SDS011;15464;50.988;10.318;2023-12-22T03:33:49;9.70;;;2.53;;
28180;SDS011;15464;50.988;10.318;2023-12-22T03:36:16;10.43;;;2.45;;
28180;SDS011;15464;50.988;10.318;2023-12-22T03:38:43;17.85;;;3.10;;
28180;SDS011;15464;50.988;10.318;2023-12-22T03:41:09;10.93;;;2.40;;
28180;SDS011;15464;50.988;10.318;2023-12-22T03:43:36;15.35;;;2.47;;
28180;SDS011;15464;50.988;10.318;2023-12-22T03:46:03;8.82;;;2.30;;
28180;SDS011;15464;50.988;10.318;2023-12-22T03:48:29;11.15;;;2.65;;
28180;SDS011;15464;50.988;10.318;2023-12-22T03:50:56;14.88;;;2.80;;
28180;SDS011;15464;50.988;10.318;2023-12-22T03:53:25;11.60;;;2.70;;
28180;SDS011;15464;50.988;10.318;2023-12-22T03:55:52;8.63;;;2.15;;
28180;SDS011;15464;50.988;10.318;2023-12-22T03:58:19;9.20;;;2.08;;
28180;SDS011;15464;50.988;10.318;2023-12-22T04:00:45;13.10;;;2.38;;
28180;SDS011;15464;50.988;10.318;2023-12-22T04:03:13;6.05;;;1.90;;
28180;SDS011;15464;50.988;10.318;2023-12-22T04:05:39;8.55;;;2.00;;
28180;SDS011;15464;50.988;10.318;2023-12-22T04:08:06;9.30;;;2.13;;
28180;SDS011;15464;50.988;10.318;2023-12-22T04:10:33;8.68;;;2.08;;
28180;SDS011;15464;50.988;10.318;2023-12-22T04:13:00;9.85;;;2.28;;
28180;SDS011;15464;50.988;10.318;2023-12-22T04:15:26;9.70;;;1.88;;
28180;SDS011;15464;50.988;10.318;2023-12-22T04:17:53;8.02;;;2.45;;
28180;SDS011;15464;50.988;10.318;2023-12-22T04:20:20;10.55;;;2.65;;
28180;SDS011;15464;50.988;10.318;2023-12-22T04:22:46;10.02;;;2.30;;
28180;SDS011;15464;50.988;10.318;2023-12-22T04:25:13;9.98;;;2.00;;
28180;SDS011;15464;50.988;10.318;2023-12-22T04:27:40;12.77;;;2.80;;
28180;SDS011;15464;50.988;10.318;2023-12-22T04:30:07;15.75;;;2.42;;
28180;SDS011;15464;50.988;10.318;2023-12-22T04:32:34;11.75;;;2.10;;
28180;SDS011;15464;50.988;10.318;2023-12-22T04:35:01;12.90;;;2.80;;
28180;SDS011;15464;50.988;10.318;2023-12-22T04:37:27;13.65;;;2.80;;
28180;SDS011;15464;50.988;10.318;2023-12-22T04:39:54;7.78;;;2.42;;
28180;SDS011;15464;50.988;10.318;2023-12-22T04:42:21;8.85;;;2.20;;
28180;SDS011;15464;50.988;10.318;2023-12-22T04:44:47;10.25;;;2.63;;
28180;SDS011;15464;50.988;10.318;2023-12-22T04:47:14;14.93;;;2.40;;
28180;SDS011;15464;50.988;10.318;2023-12-22T04:49:41;11.90;;;2.70;;
28180;SDS011;15464;50.988;10.318;2023-12-22T04:52:08;14.40;;;2.83;;
28180;SDS011;15464;50.988;10.318;2023-12-22T04:54:34;9.85;;;2.35;;
28180;SDS011;15464;50.988;10.318;2023-12-22T04:57:01;13.00;;;2.28;;
28180;SDS011;15464;50.988;10.318;2023-12-22T04:59:28;11.55;;;2.13;;
28180;SDS011;15464;50.988;10.318;2023-12-22T05:01:54;12.43;;;2.45;;
28180;SDS011;15464;50.988;10.318;2023-12-22T05:04:21;20.20;;;3.50;;
28180;SDS011;15464;50.988;10.318;2023-12-22T05:06:48;17.13;;;3.50;;
28180;SDS011;15464;50.988;10.318;2023-12-22T05:09:15;17.00;;;2.80;;
28180;SDS011;15464;50.988;10.318;2023-12-22T05:11:42;14.07;;;2.55;;
28180;SDS011;15464;50.988;10.318;2023-12-22T05:14:09;16.42;;;4.15;;
28180;SDS011;15464;50.988;10.318;2023-12-22T05:16:36;16.95;;;2.67;;
28180;SDS011;15464;50.988;10.318;2023-12-22T05:19:03;15.05;;;2.60;;
28180;SDS011;15464;50.988;10.318;2023-12-22T05:21:30;14.85;;;3.22;;
28180;SDS011;15464;50.988;10.318;2023-12-22T05:23:56;11.48;;;2.67;;
28180;SDS011;15464;50.988;10.318;2023-12-22T05:26:23;10.85;;;2.70;;
28180;SDS011;15464;50.988;10.318;2023-12-22T05:28:50;12.02;;;2.30;;
28180;SDS011;15464;50.988;10.318;2023-12-22T05:31:17;12.82;;;2.40;;
28180;SDS011;15464;50.988;10.318;2023-12-22T05:33:45;10.75;;;3.55;;
28180;SDS011;15464;50.988;10.318;2023-12-22T05:36:12;11.23;;;2.47;;
28180;SDS011;15464;50.988;10.318;2023-12-22T05:38:39;12.40;;;2.10;;
28180;SDS011;15464;50.988;10.318;2023-12-22T05:41:06;8.75;;;1.90;;
28180;SDS011;15464;50.988;10.318;2023-12-22T05:43:33;9.38;;;2.00;;
28180;SDS011;15464;50.988;10.318;2023-12-22T05:46:00;12.43;;;2.53;;
28180;SDS011;15464;50.988;10.318;2023-12-22T05:48:27;5.10;;;1.23;;
28180;SDS011;15464;50.988;10.318;2023-12-22T05:50:57;6.10;;;1.60;;
28180;SDS011;15464;50.988;10.318;2023-12-22T05:53:24;5.00;;;1.27;;
28180;SDS011;15464;50.988;10.318;2023-12-22T05:55:51;6.47;;;1.88;;
28180;SDS011;15464;50.988;10.318;2023-12-22T05:58:18;5.82;;;1.23;;
28180;SDS011;15464;50.988;10.318;2023-12-22T06:00:44;7.28;;;1.27;;
28180;SDS011;15464;50.988;10.318;2023-12-22T06:03:11;5.88;;;1.50;;
28180;SDS011;15464;50.988;10.318;2023-12-22T06:05:38;3.83;;;1.00;;
28180;SDS011;15464;50.988;10.318;2023-12-22T06:08:05;6.60;;;1.35;;
28180;SDS011;15464;50.988;10.318;2023-12-22T06:10:32;4.00;;;1.20;;
28180;SDS011;15464;50.988;10.318;2023-12-22T06:12:59;7.53;;;1.35;;
28180;SDS011;15464;50.988;10.318;2023-12-22T06:15:30;6.00;;;1.30;;
28180;SDS011;15464;50.988;10.318;2023-12-22T06:17:56;3.50;;;1.27;;
28180;SDS011;15464;50.988;10.318;2023-12-22T06:20:24;2.42;;;0.80;;
28180;SDS011;15464;50.988;10.318;2023-12-22T06:22:52;3.63;;;0.93;;
28180;SDS011;15464;50.988;10.318;2023-12-22T06:25:19;3.55;;;0.80;;
28180;SDS011;15464;50.988;10.318;2023-12-22T06:27:46;2.72;;;0.82;;
28180;SDS011;15464;50.988;10.318;2023-12-22T06:30:13;5.60;;;1.23;;
28180;SDS011;15464;50.988;10.318;2023-12-22T06:32:40;3.00;;;0.82;;
28180;SDS011;15464;50.988;10.318;2023-12-22T06:35:07;4.07;;;1.50;;
28180;SDS011;15464;50.988;10.318;2023-12-22T06:37:39;5.25;;;1.23;;
28180;SDS011;15464;50.988;10.318;2023-12-22T06:40:06;6.75;;;1.00;;
28180;SDS011;15464;50.988;10.318;2023-12-22T06:42:33;3.10;;;1.15;;
28180;SDS011;15464;50.988;10.318;2023-12-22T06:45:00;6.25;;;0.93;;
28180;SDS011;15464;50.988;10.318;2023-12-22T06:47:27;4.43;;;1.30;;
28180;SDS011;15464;50.988;10.318;2023-12-22T06:49:54;3.78;;;0.80;;
28180;SDS011;15464;50.988;10.318;2023-12-22T06:52:21;4.10;;;1.45;;
28180;SDS011;15464;50.988;10.318;2023-12-22T06:54:48;3.83;;;1.00;;
28180;SDS011;15464;50.988;10.318;2023-12-22T06:57:14;6.03;;;1.20;;
28180;SDS011;15464;50.988;10.318;2023-12-22T07:02:12;5.40;;;1.20;;
28180;SDS011;15464;50.988;10.318;2023-12-22T07:07:36;6.00;;;1.42;;
28180;SDS011;15464;50.988;10.318;2023-12-22T07:10:03;8.40;;;1.52;;
28180;SDS011;15464;50.988;10.318;2023-12-22T07:12:30;6.15;;;1.50;;
28180;SDS011;15464;50.988;10.318;2023-12-22T07:14:58;3.90;;;1.30;;
28180;SDS011;15464;50.988;10.318;2023-12-22T07:17:25;8.32;;;1.92;;
28180;SDS011;15464;50.988;10.318;2023-12-22T07:19:52;6.35;;;1.60;;
28180;SDS011;15464;50.988;10.318;2023-12-22T07:22:21;6.00;;;1.42;;
28180;SDS011;15464;50.988;10.318;2023-12-22T07:24:48;11.13;;;2.03;;
28180;SDS011;15464;50.988;10.318;2023-12-22T07:27:15;6.13;;;1.48;;
28180;SDS011;15464;50.988;10.318;2023-12-22T07:29:42;6.18;;;1.48;;
28180;SDS011;15464;50.988;10.318;2023-12-22T07:32:09;7.55;;;1.73;;
28180;SDS011;15464;50.988;10.318;2023-12-22T07:34:35;4.75;;;1.45;;
28180;SDS011;15464;50.988;10.318;2023-12-22T07:37:04;11.80;;;2.17;;
28180;SDS011;15464;50.988;10.318;2023-12-22T07:39:35;8.68;;;1.50;;
28180;SDS011;15464;50.988;10.318;2023-12-22T07:42:03;5.32;;;1.60;;
28180;SDS011;15464;50.988;10.318;2023-12-22T07:44:30;8.77;;;1.73;;
28180;SDS011;15464;50.988;10.318;2023-12-22T07:46:59;5.73;;;1.93;;
28180;SDS011;15464;50.988;10.318;2023-12-22T07:49:28;10.35;;;1.50;;
28180;SDS011;15464;50.988;10.318;2023-12-22T07:51:57;10.02;;;1.88;;
28180;SDS011;15464;50.988;10.318;2023-12-22T07:54:23;6.03;;;1.55;;
28180;SDS011;15464;50.988;10.318;2023-12-22T07:56:52;5.43;;;1.92;;
28180;SDS011;15464;50.988;10.318;2023-12-22T07:59:18;8.73;;;1.77;;
28180;SDS011;15464;50.988;10.318;2023-12-22T08:01:56;7.65;;;1.73;;
28180;SDS011;15464;50.988;10.318;2023-12-22T08:04:23;7.95;;;1.60;;
28180;SDS011;15464;50.988;10.318;2023-12-22T08:06:50;10.02;;;1.90;;
28180;SDS011;15464;50.988;10.318;2023-12-22T08:09:18;5.13;;;1.50;;
28180;SDS011;15464;50.988;10.318;2023-12-22T08:11:45;8.93;;;2.15;;
28180;SDS011;15464;50.988;10.318;2023-12-22T08:14:13;5.13;;;1.50;;
28180;SDS011;15464;50.988;10.318;2023-12-22T08:16:40;6.32;;;1.35;;
28180;SDS011;15464;50.988;10.318;2023-12-22T08:19:07;6.90;;;1.92;;
28180;SDS011;15464;50.988;10.318;2023-12-22T08:21:34;9.15;;;2.38;;
28180;SDS011;15464;50.988;10.318;2023-12-22T08:24:11;10.48;;;1.88;;
28180;SDS011;15464;50.988;10.318;2023-12-22T08:26:48;6.40;;;2.00;;
28180;SDS011;15464;50.988;10.318;2023-12-22T08:29:15;7.50;;;1.88;;
28180;SDS011;15464;50.988;10.318;2023-12-22T08:31:42;7.72;;;1.80;;
28180;SDS011;15464;50.988;10.318;2023-12-22T08:36:38;5.97;;;1.88;;
28180;SDS011;15464;50.988;10.318;2023-12-22T08:39:05;8.20;;;2.00;;
28180;SDS011;15464;50.988;10.318;2023-12-22T08:41:33;10.10;;;2.65;;
28180;SDS011;15464;50.988;10.318;2023-12-22T08:44:03;7.05;;;1.70;;
28180;SDS011;15464;50.988;10.318;2023-12-22T08:46:31;8.07;;;2.40;;
28180;SDS011;15464;50.988;10.318;2023-12-22T08:48:59;7.15;;;1.67;;
28180;SDS011;15464;50.988;10.318;2023-12-22T08:51:26;5.43;;;1.52;;
28180;SDS011;15464;50.988;10.318;2023-12-22T08:53:53;8.07;;;2.22;;
28180;SDS011;15464;50.988;10.318;2023-12-22T08:56:24;9.30;;;2.80;;
28180;SDS011;15464;50.988;10.318;2023-12-22T08:58:51;10.23;;;2.40;;
28180;SDS011;15464;50.988;10.318;2023-12-22T09:01:19;9.00;;;2.63;;
28180;SDS011;15464;50.988;10.318;2023-12-22T09:03:46;8.30;;;2.13;;
28180;SDS011;15464;50.988;10.318;2023-12-22T09:06:14;11.85;;;2.08;;
28180;SDS011;15464;50.988;10.318;2023-12-22T09:08:41;8.32;;;2.10;;
28180;SDS011;15464;50.988;10.318;2023-12-22T09:11:11;8.50;;;1.80;;
28180;SDS011;15464;50.988;10.318;2023-12-22T09:13:38;10.32;;;2.13;;
28180;SDS011;15464;50.988;10.318;2023-12-22T09:16:05;8.93;;;2.13;;
28180;SDS011;15464;50.988;10.318;2023-12-22T09:18:32;8.35;;;1.90;;
28180;SDS011;15464;50.988;10.318;2023-12-22T09:20:59;11.20;;;1.77;;
28180;SDS011;15464;50.988;10.318;2023-12-22T09:23:27;8.63;;;2.00;;
28180;SDS011;15464;50.988;10.318;2023-12-22T09:25:53;9.35;;;2.45;;
28180;SDS011;15464;50.988;10.318;2023-12-22T09:28:20;7.25;;;2.03;;
28180;SDS011;15464;50.988;10.318;2023-12-22T09:30:47;9.48;;;2.45;;
28180;SDS011;15464;50.988;10.318;2023-12-22T09:33:13;11.23;;;2.08;;
28180;SDS011;15464;50.988;10.318;2023-12-22T09:35:40;6.90;;;2.00;;
28180;SDS011;15464;50.988;10.318;2023-12-22T09:38:08;9.45;;;2.30;;
28180;SDS011;15464;50.988;10.318;2023-12-22T09:40:36;10.05;;;2.10;;
28180;SDS011;15464;50.988;10.318;2023-12-22T09:43:03;10.57;;;2.67;;
28180;SDS011;15464;50.988;10.318;2023-12-22T09:45:32;8.87;;;1.77;;
28180;SDS011;15464;50.988;10.318;2023-12-22T09:48:00;8.05;;;1.52;;
28180;SDS011;15464;50.988;10.318;2023-12-22T09:50:28;8.93;;;1.50;;
28180;SDS011;15464;50.988;10.318;2023-12-22T09:52:56;5.50;;;1.45;;
28180;SDS011;15464;50.988;10.318;2023-12-22T09:55:23;9.10;;;1.73;;
28180;SDS011;15464;50.988;10.318;2023-12-22T09:57:53;6.60;;;1.70;;
28180;SDS011;15464;50.988;10.318;2023-12-22T10:00:21;4.57;;;1.48;;
28180;SDS011;15464;50.988;10.318;2023-12-22T10:02:49;3.72;;;1.23;;
28180;SDS011;15464;50.988;10.318;2023-12-22T10:05:15;5.95;;;1.10;;
28180;SDS011;15464;50.988;10.318;2023-12-22T10:07:44;9.63;;;1.48;;
28180;SDS011;15464;50.988;10.318;2023-12-22T10:10:13;4.30;;;1.30;;
28180;SDS011;15464;50.988;10.318;2023-12-22T10:12:42;6.60;;;1.58;;
28180;SDS011;15464;50.988;10.318;2023-12-22T10:15:11;2.40;;;0.80;;
28180;SDS011;15464;50.988;10.318;2023-12-22T10:17:39;3.42;;;0.95;;
28180;SDS011;15464;50.988;10.318;2023-12-22T10:20:07;4.10;;;0.98;;
28180;SDS011;15464;50.988;10.318;2023-12-22T10:22:34;4.35;;;0.98;;
28180;SDS011;15464;50.988;10.318;2023-12-22T10:25:01;12.63;;;2.33;;
28180;SDS011;15464;50.988;10.318;2023-12-22T10:27:29;4.63;;;1.00;;
28180;SDS011;15464;50.988;10.318;2023-12-22T10:29:58;31.77;;;2.63;;
28180;SDS011;15464;50.988;10.318;2023-12-22T10:32:25;3.80;;;1.20;;
28180;SDS011;15464;50.988;10.318;2023-12-22T10:34:52;4.88;;;1.48;;
28180;SDS011;15464;50.988;10.318;2023-12-22T10:37:20;3.28;;;0.98;;
28180;SDS011;15464;50.988;10.318;2023-12-22T10:39:48;6.38;;;1.30;;
28180;SDS011;15464;50.988;10.318;2023-12-22T10:42:18;4.68;;;1.23;;
28180;SDS011;15464;50.988;10.318;2023-12-22T10:44:45;4.05;;;0.90;;
28180;SDS011;15464;50.988;10.318;2023-12-22T10:47:16;3.60;;;1.40;;
28180;SDS011;15464;50.988;10.318;2023-12-22T10:49:45;2.50;;;0.93;;
28180;SDS011;15464;50.988;10.318;2023-12-22T10:52:16;2.88;;;0.95;;
28180;SDS011;15464;50.988;10.318;2023-12-22T10:54:44;4.22;;;1.20;;
28180;SDS011;15464;50.988;10.318;2023-12-22T10:57:11;4.93;;;1.83;;
28180;SDS011;15464;50.988;10.318;2023-12-22T10:59:39;4.15;;;1.70;;
28180;SDS011;15464;50.988;10.318;2023-12-22T11:02:18;6.18;;;1.77;;
28180;SDS011;15464;50.988;10.318;2023-12-22T11:05:07;5.55;;;1.35;;
28180;SDS011;15464;50.988;10.318;2023-12-22T11:07:36;5.10;;;1.60;;
28180;SDS011;15464;50.988;10.318;2023-12-22T11:10:05;7.38;;;2.17;;
28180;SDS011;15464;50.988;10.318;2023-12-22T11:12:37;3.97;;;1.65;;
28180;SDS011;15464;50.988;10.318;2023-12-22T11:15:05;6.43;;;1.50;;
28180;SDS011;15464;50.988;10.318;2023-12-22T11:17:33;4.22;;;1.70;;
28180;SDS011;15464;50.988;10.318;2023-12-22T11:20:02;4.15;;;1.17;;
28180;SDS011;15464;50.988;10.318;2023-12-22T11:22:33;2.13;;;1.25;;
28180;SDS011;15464;50.988;10.318;2023-12-22T11:25:02;4.13;;;1.65;;
28180;SDS011;15464;50.988;10.318;2023-12-22T11:27:29;2.30;;;1.08;;
28180;SDS011;15464;50.988;10.318;2023-12-22T11:30:00;2.53;;;1.00;;
28180;SDS011;15464;50.988;10.318;2023-12-22T11:32:28;3.65;;;1.20;;
28180;SDS011;15464;50.988;10.318;2023-12-22T11:34:56;5.15;;;1.35;;
28180;SDS011;15464;50.988;10.318;2023-12-22T11:37:23;3.42;;;1.15;;
28180;SDS011;15464;50.988;10.318;2023-12-22T11:39:50;8.60;;;1.23;;
28180;SDS011;15464;50.988;10.318;2023-12-22T11:42:19;3.25;;;1.27;;
28180;SDS011;15464;50.988;10.318;2023-12-22T11:44:49;3.33;;;1.52;;
28180;SDS011;15464;50.988;10.318;2023-12-22T11:47:17;5.72;;;1.38;;
28180;SDS011;15464;50.988;10.318;2023-12-22T11:49:49;3.88;;;1.23;;
28180;SDS011;15464;50.988;10.318;2023-12-22T11:52:24;4.07;;;1.33;;
28180;SDS011;15464;50.988;10.318;2023-12-22T11:54:55;3.65;;;1.33;;
28180;SDS011;15464;50.988;10.318;2023-12-22T12:00:01;2.75;;;1.20;;
28180;SDS011;15464;50.988;10.318;2023-12-22T12:02:30;1.88;;;0.90;;
28180;SDS011;15464;50.988;10.318;2023-12-22T12:04:58;4.22;;;1.20;;
28180;SDS011;15464;50.988;10.318;2023-12-22T12:07:45;3.92;;;1.23;;
28180;SDS011;15464;50.988;10.318;2023-12-22T12:13:07;1.75;;;1.10;;
28180;SDS011;15464;50.988;10.318;2023-12-22T12:15:38;3.33;;;1.30;;
28180;SDS011;15464;50.988;10.318;2023-12-22T12:18:05;2.80;;;0.98;;
28180;SDS011;15464;50.988;10.318;2023-12-22T12:20:32;1.67;;;0.90;;
28180;SDS011;15464;50.988;10.318;2023-12-22T12:23:02;1.20;;;0.73;;
28180;SDS011;15464;50.988;10.318;2023-12-22T12:25:30;1.80;;;0.85;;
28180;SDS011;15464;50.988;10.318;2023-12-22T12:30:33;1.83;;;0.88;;
28180;SDS011;15464;50.988;10.318;2023-12-22T12:33:07;1.80;;;0.80;;
28180;SDS011;15464;50.988;10.318;2023-12-22T12:35:34;2.25;;;1.20;;
28180;SDS011;15464;50.988;10.318;2023-12-22T12:38:07;2.38;;;0.95;;
28180;SDS011;15464;50.988;10.318;2023-12-22T12:40:34;2.35;;;0.90;;
28180;SDS011;15464;50.988;10.318;2023-12-22T12:43:05;1.73;;;0.80;;
28180;SDS011;15464;50.988;10.318;2023-12-22T12:45:32;1.80;;;0.90;;
28180;SDS011;15464;50.988;10.318;2023-12-22T12:48:01;1.90;;;0.82;;
28180;SDS011;15464;50.988;10.318;2023-12-22T12:50:32;2.10;;;0.90;;
28180;SDS011;15464;50.988;10.318;2023-12-22T12:52:59;0.98;;;0.75;;
28180;SDS011;15464;50.988;10.318;2023-12-22T12:55:27;1.73;;;0.88;;
28180;SDS011;15464;50.988;10.318;2023-12-22T12:57:54;2.13;;;1.00;;
28180;SDS011;15464;50.988;10.318;2023-12-22T13:00:25;2.30;;;0.93;;
28180;SDS011;15464;50.988;10.318;2023-12-22T13:02:56;1.88;;;0.95;;
28180;SDS011;15464;50.988;10.318;2023-12-22T13:05:29;0.88;;;0.80;;
28180;SDS011;15464;50.988;10.318;2023-12-22T13:08:09;2.75;;;0.90;;
28180;SDS011;15464;50.988;10.318;2023-12-22T13:10:38;1.17;;;0.88;;
28180;SDS011;15464;50.988;10.318;2023-12-22T13:13:06;1.73;;;0.80;;
28180;SDS011;15464;50.988;10.318;2023-12-22T13:15:33;2.67;;;0.90;;
28180;SDS011;15464;50.988;10.318;2023-12-22T13:18:00;2.13;;;0.95;;
28180;SDS011;15464;50.988;10.318;2023-12-22T13:20:28;2.40;;;0.90;;
28180;SDS011;15464;50.988;10.318;2023-12-22T13:22:55;2.05;;;1.02;;
28180;SDS011;15464;50.988;10.318;2023-12-22T13:25:22;19.65;;;2.78;;
28180;SDS011;15464;50.988;10.318;2023-12-22T13:27:51;104.10;;;8.83;;
28180;SDS011;15464;50.988;10.318;2023-12-22T13:30:35;2.00;;;1.52;;
28180;SDS011;15464;50.988;10.318;2023-12-22T13:33:05;2.20;;;1.10;;
28180;SDS011;15464;50.988;10.318;2023-12-22T13:35:32;1.50;;;0.90;;
28180;SDS011;15464;50.988;10.318;2023-12-22T13:38:07;2.92;;;1.08;;
28180;SDS011;15464;50.988;10.318;2023-12-22T13:40:34;1.52;;;0.68;;
28180;SDS011;15464;50.988;10.318;2023-12-22T13:43:02;2.38;;;1.17;;
28180;SDS011;15464;50.988;10.318;2023-12-22T13:45:29;1.90;;;0.98;;
28180;SDS011;15464;50.988;10.318;2023-12-22T13:47:57;7.65;;;1.15;;
28180;SDS011;15464;50.988;10.318;2023-12-22T13:50:24;1.30;;;0.80;;
28180;SDS011;15464;50.988;10.318;2023-12-22T13:52:51;1.75;;;0.80;;
28180;SDS011;15464;50.988;10.318;2023-12-22T13:55:20;2.40;;;1.00;;
28180;SDS011;15464;50.988;10.318;2023-12-22T13:57:50;2.33;;;0.85;;
28180;SDS011;15464;50.988;10.318;2023-12-22T14:00:28;1.77;;;0.90;;
28180;SDS011;15464;50.988;10.318;2023-12-22T14:05:22;2.13;;;0.90;;
28180;SDS011;15464;50.988;10.318;2023-12-22T14:07:49;1.90;;;0.70;;
28180;SDS011;15464;50.988;10.318;2023-12-22T14:10:17;1.23;;;0.80;;
28180;SDS011;15464;50.988;10.318;2023-12-22T14:12:44;1.23;;;0.50;;
28180;SDS011;15464;50.988;10.318;2023-12-22T14:15:11;1.02;;;0.63;;
28180;SDS011;15464;50.988;10.318;2023-12-22T14:17:38;2.30;;;1.10;;
28180;SDS011;15464;50.988;10.318;2023-12-22T14:20:05;1.95;;;1.00;;
28180;SDS011;15464;50.988;10.318;2023-12-22T14:22:36;0.80;;;0.63;;
28180;SDS011;15464;50.988;10.318;2023-12-22T14:25:04;1.92;;;1.10;;
28180;SDS011;15464;50.988;10.318;2023-12-22T14:27:31;1.88;;;0.85;;
28180;SDS011;15464;50.988;10.318;2023-12-22T14:29:58;2.28;;;0.98;;
28180;SDS011;15464;50.988;10.318;2023-12-22T14:32:25;1.92;;;0.70;;
28180;SDS011;15464;50.988;10.318;2023-12-22T14:34:51;1.63;;;1.00;;
28180;SDS011;15464;50.988;10.318;2023-12-22T14:37:18;1.20;;;0.57;;
28180;SDS011;15464;50.988;10.318;2023-12-22T14:39:47;1.83;;;0.85;;
28180;SDS011;15464;50.988;10.318;2023-12-22T14:42:14;2.58;;;1.23;;
28180;SDS011;15464;50.988;10.318;2023-12-22T14:44:41;2.20;;;0.60;;
28180;SDS011;15464;50.988;10.318;2023-12-22T14:47:07;1.73;;;1.00;;
28180;SDS011;15464;50.988;10.318;2023-12-22T14:49:39;1.63;;;1.00;;
28180;SDS011;15464;50.988;10.318;2023-12-22T14:52:06;0.90;;;0.80;;
28180;SDS011;15464;50.988;10.318;2023-12-22T14:54:33;2.80;;;1.40;;
28180;SDS011;15464;50.988;10.318;2023-12-22T14:56:59;1.85;;;1.30;;
28180;SDS011;15464;50.988;10.318;2023-12-22T14:59:27;3.00;;;1.50;;
28180;SDS011;15464;50.988;10.318;2023-12-22T15:01:54;1.90;;;1.02;;